sensor_id;sensor_type;location;lat;lon;timestamp;P1;durP1;ratioP1;P2;durP2;ratioP2
11777;SDS011;5946;51.770;8.548;2022-11-21T00:00:29;68.50;;;34.47;;
11777;SDS011;5946;51.770;8.548;2022-11-21T00:02:58;69.30;;;33.27;;
11777;SDS011;5946;51.770;8.548;2022-11-21T00:05:25;80.23;;;35.87;;
11777;SDS011;5946;51.770;8.548;2022-11-21T00:07:51;75.47;;;35.70;;
11777;SDS011;5946;51.770;8.548;2022-11-21T00:10:17;63.03;;;33.30;;
11777;SDS011;5946;51.770;8.548;2022-11-21T00:12:43;80.63;;;35.57;;
11777;SDS011;5946;51.770;8.548;2022-11-21T00:15:09;74.17;;;33.50;;
11777;SDS011;5946;51.770;8.548;2022-11-21T00:17:35;89.07;;;36.17;;
11777;SDS011;5946;51.770;8.548;2022-11-21T00:20:01;65.80;;;33.37;;
11777;SDS011;5946;51.770;8.548;2022-11-21T00:22:27;65.97;;;31.37;;
11777;SDS011;5946;51.770;8.548;2022-11-21T00:24:53;74.83;;;33.80;;
11777;SDS011;5946;51.770;8.548;2022-11-21T00:27:19;70.57;;;33.97;;
11777;SDS011;5946;51.770;8.548;2022-11-21T00:29:45;69.13;;;32.43;;
11777;SDS011;5946;51.770;8.548;2022-11-21T00:32:11;68.00;;;32.57;;
11777;SDS011;5946;51.770;8.548;2022-11-21T00:34:37;67.30;;;31.87;;
11777;SDS011;5946;51.770;8.548;2022-11-21T00:37:03;59.47;;;30.27;;
11777;SDS011;5946;51.770;8.548;2022-11-21T00:39:29;56.30;;;29.07;;
11777;SDS011;5946;51.770;8.548;2022-11-21T00:41:55;67.33;;;31.50;;
11777;SDS011;5946;51.770;8.548;2022-11-21T00:44:21;63.00;;;30.33;;
11777;SDS011;5946;51.770;8.548;2022-11-21T00:46:46;61.40;;;30.47;;
11777;SDS011;5946;51.770;8.548;2022-11-21T00:49:12;61.10;;;28.97;;
11777;SDS011;5946;51.770;8.548;2022-11-21T00:51:38;59.07;;;29.13;;
11777;SDS011;5946;51.770;8.548;2022-11-21T00:54:04;60.10;;;28.20;;
11777;SDS011;5946;51.770;8.548;2022-11-21T00:56:30;58.40;;;29.80;;
11777;SDS011;5946;51.770;8.548;2022-11-21T00:58:56;55.07;;;28.77;;
11777;SDS011;5946;51.770;8.548;2022-11-21T01:01:22;53.50;;;26.73;;
11777;SDS011;5946;51.770;8.548;2022-11-21T01:03:48;53.00;;;26.93;;
11777;SDS011;5946;51.770;8.548;2022-11-21T01:06:14;56.30;;;27.57;;
11777;SDS011;5946;51.770;8.548;2022-11-21T01:08:41;53.10;;;27.23;;
11777;SDS011;5946;51.770;8.548;2022-11-21T01:11:08;57.73;;;28.33;;
11777;SDS011;5946;51.770;8.548;2022-11-21T01:13:35;48.77;;;25.40;;
11777;SDS011;5946;51.770;8.548;2022-11-21T01:16:05;57.47;;;27.40;;
11777;SDS011;5946;51.770;8.548;2022-11-21T01:18:31;57.17;;;28.47;;
11777;SDS011;5946;51.770;8.548;2022-11-21T01:20:59;54.90;;;27.60;;
11777;SDS011;5946;51.770;8.548;2022-11-21T01:23:25;57.37;;;27.33;;
11777;SDS011;5946;51.770;8.548;2022-11-21T01:25:51;53.70;;;27.77;;
11777;SDS011;5946;51.770;8.548;2022-11-21T01:28:17;68.33;;;29.40;;
11777;SDS011;5946;51.770;8.548;2022-11-21T01:30:43;55.90;;;28.03;;
11777;SDS011;5946;51.770;8.548;2022-11-21T01:33:09;59.30;;;28.60;;
11777;SDS011;5946;51.770;8.548;2022-11-21T01:35:34;57.00;;;28.40;;
11777;SDS011;5946;51.770;8.548;2022-11-21T01:38:00;63.87;;;28.60;;
11777;SDS011;5946;51.770;8.548;2022-11-21T01:40:26;61.67;;;28.97;;
11777;SDS011;5946;51.770;8.548;2022-11-21T01:42:53;56.73;;;28.63;;
11777;SDS011;5946;51.770;8.548;2022-11-21T01:46:09;69.93;;;31.83;;
11777;SDS011;5946;51.770;8.548;2022-11-21T01:48:05;60.20;;;29.90;;
11777;SDS011;5946;51.770;8.548;2022-11-21T01:50:31;71.73;;;31.70;;
11777;SDS011;5946;51.770;8.548;2022-11-21T01:52:58;66.73;;;30.70;;
11777;SDS011;5946;51.770;8.548;2022-11-21T01:55:23;80.00;;;32.73;;
11777;SDS011;5946;51.770;8.548;2022-11-21T01:57:49;62.17;;;30.40;;
11777;SDS011;5946;51.770;8.548;2022-11-21T02:00:23;69.23;;;31.67;;
11777;SDS011;5946;51.770;8.548;2022-11-21T02:02:54;79.53;;;33.00;;
11777;SDS011;5946;51.770;8.548;2022-11-21T02:05:23;73.00;;;31.70;;
11777;SDS011;5946;51.770;8.548;2022-11-21T02:07:50;70.17;;;32.23;;
11777;SDS011;5946;51.770;8.548;2022-11-21T02:10:18;69.50;;;32.03;;
11777;SDS011;5946;51.770;8.548;2022-11-21T02:12:54;72.50;;;32.20;;
11777;SDS011;5946;51.770;8.548;2022-11-21T02:15:21;73.20;;;33.27;;
11777;SDS011;5946;51.770;8.548;2022-11-21T02:17:47;65.23;;;30.20;;
11777;SDS011;5946;51.770;8.548;2022-11-21T02:20:14;65.93;;;31.80;;
11777;SDS011;5946;51.770;8.548;2022-11-21T02:25:29;66.20;;;30.33;;
11777;SDS011;5946;51.770;8.548;2022-11-21T02:27:57;82.70;;;34.03;;
11777;SDS011;5946;51.770;8.548;2022-11-21T02:30:24;70.67;;;32.47;;
11777;SDS011;5946;51.770;8.548;2022-11-21T02:32:51;66.13;;;29.90;;
11777;SDS011;5946;51.770;8.548;2022-11-21T02:35:18;66.63;;;31.30;;
11777;SDS011;5946;51.770;8.548;2022-11-21T02:37:44;80.07;;;32.80;;
11777;SDS011;5946;51.770;8.548;2022-11-21T02:40:13;72.90;;;32.37;;
11777;SDS011;5946;51.770;8.548;2022-11-21T02:47:48;79.47;;;33.70;;
11777;SDS011;5946;51.770;8.548;2022-11-21T02:50:17;73.73;;;33.07;;
11777;SDS011;5946;51.770;8.548;2022-11-21T02:52:44;73.77;;;32.33;;
11777;SDS011;5946;51.770;8.548;2022-11-21T02:55:10;77.33;;;35.27;;
11777;SDS011;5946;51.770;8.548;2022-11-21T02:57:37;91.27;;;36.07;;
11777;SDS011;5946;51.770;8.548;2022-11-21T03:00:04;86.90;;;36.33;;
11777;SDS011;5946;51.770;8.548;2022-11-21T03:02:30;98.93;;;38.43;;
11777;SDS011;5946;51.770;8.548;2022-11-21T03:04:56;99.87;;;37.97;;
11777;SDS011;5946;51.770;8.548;2022-11-21T03:07:22;83.83;;;37.73;;
11777;SDS011;5946;51.770;8.548;2022-11-21T03:09:48;87.80;;;38.33;;
11777;SDS011;5946;51.770;8.548;2022-11-21T03:12:14;86.50;;;36.37;;
11777;SDS011;5946;51.770;8.548;2022-11-21T03:14:40;89.20;;;37.53;;
11777;SDS011;5946;51.770;8.548;2022-11-21T03:17:06;100.77;;;39.63;;
11777;SDS011;5946;51.770;8.548;2022-11-21T03:19:32;90.70;;;39.40;;
11777;SDS011;5946;51.770;8.548;2022-11-21T03:21:58;98.33;;;42.27;;
11777;SDS011;5946;51.770;8.548;2022-11-21T03:24:24;101.33;;;41.03;;
11777;SDS011;5946;51.770;8.548;2022-11-21T03:26:50;111.13;;;42.93;;
11777;SDS011;5946;51.770;8.548;2022-11-21T03:29:16;104.27;;;42.33;;
11777;SDS011;5946;51.770;8.548;2022-11-21T03:31:42;100.90;;;41.77;;
11777;SDS011;5946;51.770;8.548;2022-11-21T03:34:08;108.40;;;45.30;;
11777;SDS011;5946;51.770;8.548;2022-11-21T03:36:34;118.90;;;48.00;;
11777;SDS011;5946;51.770;8.548;2022-11-21T03:39:00;135.17;;;48.77;;
11777;SDS011;5946;51.770;8.548;2022-11-21T03:41:26;126.60;;;46.20;;
11777;SDS011;5946;51.770;8.548;2022-11-21T03:46:21;120.03;;;45.47;;
11777;SDS011;5946;51.770;8.548;2022-11-21T03:48:47;129.97;;;47.63;;
11777;SDS011;5946;51.770;8.548;2022-11-21T03:51:13;124.93;;;46.93;;
11777;SDS011;5946;51.770;8.548;2022-11-21T03:53:39;131.63;;;46.50;;
11777;SDS011;5946;51.770;8.548;2022-11-21T03:56:05;111.83;;;47.00;;
11777;SDS011;5946;51.770;8.548;2022-11-21T03:58:31;108.00;;;46.07;;
11777;SDS011;5946;51.770;8.548;2022-11-21T04:00:57;111.70;;;46.70;;
11777;SDS011;5946;51.770;8.548;2022-11-21T04:03:23;119.30;;;47.73;;
11777;SDS011;5946;51.770;8.548;2022-11-21T04:05:49;116.50;;;47.43;;
11777;SDS011;5946;51.770;8.548;2022-11-21T04:08:15;147.00;;;47.97;;
11777;SDS011;5946;51.770;8.548;2022-11-21T04:10:51;103.30;;;44.27;;
11777;SDS011;5946;51.770;8.548;2022-11-21T04:13:17;119.13;;;45.93;;
11777;SDS011;5946;51.770;8.548;2022-11-21T04:15:43;127.77;;;47.17;;
11777;SDS011;5946;51.770;8.548;2022-11-21T04:18:10;118.93;;;45.40;;
11777;SDS011;5946;51.770;8.548;2022-11-21T04:20:36;126.77;;;47.80;;
11777;SDS011;5946;51.770;8.548;2022-11-21T04:23:02;123.60;;;47.20;;
11777;SDS011;5946;51.770;8.548;2022-11-21T04:25:28;125.07;;;47.00;;
11777;SDS011;5946;51.770;8.548;2022-11-21T04:27:58;109.37;;;45.60;;
11777;SDS011;5946;51.770;8.548;2022-11-21T04:30:24;110.73;;;44.97;;
11777;SDS011;5946;51.770;8.548;2022-11-21T04:32:50;99.97;;;43.30;;
11777;SDS011;5946;51.770;8.548;2022-11-21T04:35:17;125.03;;;46.10;;
11777;SDS011;5946;51.770;8.548;2022-11-21T04:37:43;102.37;;;43.43;;
11777;SDS011;5946;51.770;8.548;2022-11-21T04:40:09;121.03;;;47.97;;
11777;SDS011;5946;51.770;8.548;2022-11-21T04:42:35;118.60;;;45.63;;
11777;SDS011;5946;51.770;8.548;2022-11-21T04:45:01;102.23;;;43.50;;
11777;SDS011;5946;51.770;8.548;2022-11-21T04:47:27;105.97;;;44.40;;
11777;SDS011;5946;51.770;8.548;2022-11-21T04:49:53;116.97;;;44.83;;
11777;SDS011;5946;51.770;8.548;2022-11-21T04:52:19;117.13;;;45.70;;
11777;SDS011;5946;51.770;8.548;2022-11-21T04:54:45;120.73;;;46.03;;
11777;SDS011;5946;51.770;8.548;2022-11-21T04:57:12;101.90;;;43.93;;
11777;SDS011;5946;51.770;8.548;2022-11-21T04:59:38;118.80;;;44.97;;
11777;SDS011;5946;51.770;8.548;2022-11-21T05:02:04;119.97;;;44.70;;
11777;SDS011;5946;51.770;8.548;2022-11-21T05:04:29;102.77;;;42.83;;
11777;SDS011;5946;51.770;8.548;2022-11-21T05:06:55;115.23;;;45.07;;
11777;SDS011;5946;51.770;8.548;2022-11-21T05:09:21;112.23;;;42.53;;
11777;SDS011;5946;51.770;8.548;2022-11-21T05:11:47;140.83;;;48.53;;
11777;SDS011;5946;51.770;8.548;2022-11-21T05:14:32;112.43;;;43.30;;
11777;SDS011;5946;51.770;8.548;2022-11-21T05:16:58;127.70;;;46.53;;
11777;SDS011;5946;51.770;8.548;2022-11-21T05:19:24;122.30;;;47.13;;
11777;SDS011;5946;51.770;8.548;2022-11-21T05:21:50;148.00;;;50.60;;
11777;SDS011;5946;51.770;8.548;2022-11-21T05:24:16;162.00;;;51.73;;
11777;SDS011;5946;51.770;8.548;2022-11-21T05:26:41;130.60;;;47.07;;
11777;SDS011;5946;51.770;8.548;2022-11-21T05:29:07;137.73;;;50.53;;
11777;SDS011;5946;51.770;8.548;2022-11-21T05:31:33;122.80;;;47.90;;
11777;SDS011;5946;51.770;8.548;2022-11-21T05:33:59;147.70;;;49.90;;
11777;SDS011;5946;51.770;8.548;2022-11-21T05:36:25;114.20;;;45.93;;
11777;SDS011;5946;51.770;8.548;2022-11-21T05:38:51;130.57;;;45.80;;
11777;SDS011;5946;51.770;8.548;2022-11-21T05:41:17;139.50;;;53.07;;
11777;SDS011;5946;51.770;8.548;2022-11-21T05:43:43;132.60;;;50.57;;
11777;SDS011;5946;51.770;8.548;2022-11-21T05:46:20;126.67;;;44.33;;
11777;SDS011;5946;51.770;8.548;2022-11-21T05:48:47;138.83;;;48.33;;
11777;SDS011;5946;51.770;8.548;2022-11-21T05:51:13;146.40;;;48.03;;
11777;SDS011;5946;51.770;8.548;2022-11-21T05:53:39;139.50;;;46.17;;
11777;SDS011;5946;51.770;8.548;2022-11-21T05:56:06;134.20;;;48.07;;
11777;SDS011;5946;51.770;8.548;2022-11-21T05:58:33;149.30;;;49.90;;
11777;SDS011;5946;51.770;8.548;2022-11-21T06:00:59;126.30;;;44.30;;
11777;SDS011;5946;51.770;8.548;2022-11-21T06:03:25;139.53;;;46.20;;
11777;SDS011;5946;51.770;8.548;2022-11-21T06:08:24;181.27;;;75.10;;
11777;SDS011;5946;51.770;8.548;2022-11-21T06:10:50;140.20;;;48.50;;
11777;SDS011;5946;51.770;8.548;2022-11-21T06:13:16;126.37;;;47.07;;
11777;SDS011;5946;51.770;8.548;2022-11-21T06:18:15;147.60;;;53.03;;
11777;SDS011;5946;51.770;8.548;2022-11-21T06:20:41;147.57;;;48.73;;
11777;SDS011;5946;51.770;8.548;2022-11-21T06:23:07;136.60;;;47.17;;
11777;SDS011;5946;51.770;8.548;2022-11-21T06:25:33;148.53;;;47.93;;
11777;SDS011;5946;51.770;8.548;2022-11-21T06:27:59;136.33;;;46.57;;
11777;SDS011;5946;51.770;8.548;2022-11-21T06:30:25;151.93;;;48.23;;
11777;SDS011;5946;51.770;8.548;2022-11-21T06:32:51;129.07;;;45.33;;
11777;SDS011;5946;51.770;8.548;2022-11-21T06:35:17;133.57;;;46.20;;
11777;SDS011;5946;51.770;8.548;2022-11-21T06:37:43;156.83;;;51.10;;
11777;SDS011;5946;51.770;8.548;2022-11-21T06:40:09;148.97;;;45.83;;
11777;SDS011;5946;51.770;8.548;2022-11-21T06:42:35;149.90;;;45.37;;
11777;SDS011;5946;51.770;8.548;2022-11-21T06:45:01;130.43;;;43.53;;
11777;SDS011;5946;51.770;8.548;2022-11-21T06:47:27;110.67;;;41.07;;
11777;SDS011;5946;51.770;8.548;2022-11-21T06:49:53;140.23;;;45.53;;
11777;SDS011;5946;51.770;8.548;2022-11-21T06:52:19;141.53;;;47.37;;
11777;SDS011;5946;51.770;8.548;2022-11-21T06:54:45;122.30;;;45.03;;
11777;SDS011;5946;51.770;8.548;2022-11-21T06:57:11;160.87;;;49.30;;
11777;SDS011;5946;51.770;8.548;2022-11-21T06:59:37;169.13;;;48.27;;
11777;SDS011;5946;51.770;8.548;2022-11-21T07:02:02;137.33;;;44.50;;
11777;SDS011;5946;51.770;8.548;2022-11-21T07:04:28;119.33;;;41.97;;
11777;SDS011;5946;51.770;8.548;2022-11-21T07:06:54;134.80;;;42.63;;
11777;SDS011;5946;51.770;8.548;2022-11-21T07:09:20;103.67;;;38.60;;
11777;SDS011;5946;51.770;8.548;2022-11-21T07:11:46;106.93;;;38.50;;
11777;SDS011;5946;51.770;8.548;2022-11-21T07:14:12;116.27;;;40.60;;
11777;SDS011;5946;51.770;8.548;2022-11-21T07:16:38;143.70;;;43.37;;
11777;SDS011;5946;51.770;8.548;2022-11-21T07:19:04;125.00;;;44.30;;
11777;SDS011;5946;51.770;8.548;2022-11-21T07:21:30;150.93;;;45.47;;
11777;SDS011;5946;51.770;8.548;2022-11-21T07:23:56;160.07;;;46.10;;
11777;SDS011;5946;51.770;8.548;2022-11-21T07:26:22;106.73;;;40.00;;
11777;SDS011;5946;51.770;8.548;2022-11-21T07:28:48;118.50;;;42.30;;
11777;SDS011;5946;51.770;8.548;2022-11-21T07:31:15;138.77;;;44.37;;
11777;SDS011;5946;51.770;8.548;2022-11-21T07:33:41;122.27;;;41.10;;
11777;SDS011;5946;51.770;8.548;2022-11-21T07:36:07;108.33;;;39.60;;
11777;SDS011;5946;51.770;8.548;2022-11-21T07:38:33;119.73;;;40.57;;
11777;SDS011;5946;51.770;8.548;2022-11-21T07:40:59;134.40;;;43.70;;
11777;SDS011;5946;51.770;8.548;2022-11-21T07:43:25;133.00;;;43.50;;
11777;SDS011;5946;51.770;8.548;2022-11-21T07:45:51;109.70;;;39.23;;
11777;SDS011;5946;51.770;8.548;2022-11-21T07:48:17;146.87;;;44.17;;
11777;SDS011;5946;51.770;8.548;2022-11-21T07:50:43;110.50;;;39.97;;
11777;SDS011;5946;51.770;8.548;2022-11-21T07:53:09;123.07;;;42.20;;
11777;SDS011;5946;51.770;8.548;2022-11-21T07:55:35;124.87;;;44.40;;
11777;SDS011;5946;51.770;8.548;2022-11-21T07:58:02;126.23;;;42.70;;
11777;SDS011;5946;51.770;8.548;2022-11-21T08:00:29;163.00;;;49.93;;
11777;SDS011;5946;51.770;8.548;2022-11-21T08:02:55;149.00;;;49.27;;
11777;SDS011;5946;51.770;8.548;2022-11-21T08:05:21;139.83;;;47.17;;
11777;SDS011;5946;51.770;8.548;2022-11-21T08:07:48;116.60;;;42.07;;
11777;SDS011;5946;51.770;8.548;2022-11-21T08:10:14;117.53;;;43.63;;
11777;SDS011;5946;51.770;8.548;2022-11-21T08:12:40;175.60;;;59.87;;
11777;SDS011;5946;51.770;8.548;2022-11-21T08:15:06;145.20;;;49.10;;
11777;SDS011;5946;51.770;8.548;2022-11-21T08:17:33;118.97;;;45.20;;
11777;SDS011;5946;51.770;8.548;2022-11-21T08:19:59;118.83;;;44.03;;
11777;SDS011;5946;51.770;8.548;2022-11-21T08:22:25;220.83;;;102.63;;
11777;SDS011;5946;51.770;8.548;2022-11-21T08:24:51;235.93;;;130.50;;
11777;SDS011;5946;51.770;8.548;2022-11-21T08:27:21;208.30;;;107.27;;
11777;SDS011;5946;51.770;8.548;2022-11-21T08:29:48;143.37;;;60.70;;
11777;SDS011;5946;51.770;8.548;2022-11-21T08:32:14;124.50;;;55.77;;
11777;SDS011;5946;51.770;8.548;2022-11-21T08:34:40;143.17;;;67.03;;
11777;SDS011;5946;51.770;8.548;2022-11-21T08:37:06;117.77;;;49.97;;
11777;SDS011;5946;51.770;8.548;2022-11-21T08:39:32;108.47;;;48.33;;
11777;SDS011;5946;51.770;8.548;2022-11-21T08:41:58;106.07;;;44.87;;
11777;SDS011;5946;51.770;8.548;2022-11-21T08:44:27;142.40;;;55.77;;
11777;SDS011;5946;51.770;8.548;2022-11-21T08:46:53;106.67;;;44.63;;
11777;SDS011;5946;51.770;8.548;2022-11-21T08:49:19;108.00;;;44.27;;
11777;SDS011;5946;51.770;8.548;2022-11-21T08:51:45;98.57;;;42.23;;
11777;SDS011;5946;51.770;8.548;2022-11-21T08:54:18;123.23;;;43.40;;
11777;SDS011;5946;51.770;8.548;2022-11-21T08:56:44;109.63;;;42.57;;
11777;SDS011;5946;51.770;8.548;2022-11-21T08:59:10;162.30;;;90.37;;
11777;SDS011;5946;51.770;8.548;2022-11-21T09:01:36;122.33;;;56.43;;
11777;SDS011;5946;51.770;8.548;2022-11-21T09:04:03;88.20;;;39.33;;
11777;SDS011;5946;51.770;8.548;2022-11-21T09:06:29;97.53;;;38.93;;
11777;SDS011;5946;51.770;8.548;2022-11-21T09:08:55;100.90;;;49.90;;
11777;SDS011;5946;51.770;8.548;2022-11-21T09:11:21;98.23;;;52.27;;
11777;SDS011;5946;51.770;8.548;2022-11-21T09:13:49;109.03;;;53.83;;
11777;SDS011;5946;51.770;8.548;2022-11-21T09:16:34;86.57;;;39.50;;
11777;SDS011;5946;51.770;8.548;2022-11-21T09:19:18;87.73;;;38.97;;
11777;SDS011;5946;51.770;8.548;2022-11-21T09:21:45;87.13;;;37.70;;
11777;SDS011;5946;51.770;8.548;2022-11-21T09:24:11;92.50;;;40.43;;
11777;SDS011;5946;51.770;8.548;2022-11-21T09:26:37;71.73;;;33.93;;
11777;SDS011;5946;51.770;8.548;2022-11-21T09:29:03;76.90;;;36.13;;
11777;SDS011;5946;51.770;8.548;2022-11-21T09:31:29;77.97;;;35.23;;
11777;SDS011;5946;51.770;8.548;2022-11-21T09:33:55;78.03;;;36.90;;
11777;SDS011;5946;51.770;8.548;2022-11-21T09:36:21;73.50;;;35.63;;
11777;SDS011;5946;51.770;8.548;2022-11-21T09:38:50;108.03;;;56.60;;
11777;SDS011;5946;51.770;8.548;2022-11-21T09:41:21;90.87;;;43.10;;
11777;SDS011;5946;51.770;8.548;2022-11-21T09:44:25;124.03;;;63.97;;
11777;SDS011;5946;51.770;8.548;2022-11-21T09:46:58;75.03;;;34.83;;
11777;SDS011;5946;51.770;8.548;2022-11-21T09:49:27;72.90;;;33.83;;
11777;SDS011;5946;51.770;8.548;2022-11-21T09:51:53;234.17;;;136.30;;
11777;SDS011;5946;51.770;8.548;2022-11-21T09:54:25;276.97;;;165.37;;
11777;SDS011;5946;51.770;8.548;2022-11-21T09:56:55;208.17;;;125.57;;
11777;SDS011;5946;51.770;8.548;2022-11-21T09:59:28;127.23;;;74.47;;
11777;SDS011;5946;51.770;8.548;2022-11-21T10:01:57;84.37;;;46.60;;
11777;SDS011;5946;51.770;8.548;2022-11-21T10:04:24;72.53;;;40.10;;
11777;SDS011;5946;51.770;8.548;2022-11-21T10:07:03;84.23;;;48.50;;
11777;SDS011;5946;51.770;8.548;2022-11-21T10:14:55;65.63;;;34.37;;
11777;SDS011;5946;51.770;8.548;2022-11-21T10:22:39;75.80;;;34.13;;
11777;SDS011;5946;51.770;8.548;2022-11-21T10:25:13;70.77;;;32.90;;
11777;SDS011;5946;51.770;8.548;2022-11-21T10:27:41;69.23;;;33.90;;
11777;SDS011;5946;51.770;8.548;2022-11-21T10:30:15;76.30;;;35.30;;
11777;SDS011;5946;51.770;8.548;2022-11-21T10:32:46;76.13;;;36.20;;
11777;SDS011;5946;51.770;8.548;2022-11-21T10:37:41;78.77;;;42.13;;
11777;SDS011;5946;51.770;8.548;2022-11-21T10:42:35;75.03;;;34.37;;
11777;SDS011;5946;51.770;8.548;2022-11-21T10:45:03;78.73;;;39.37;;
11777;SDS011;5946;51.770;8.548;2022-11-21T10:47:42;73.13;;;36.53;;
11777;SDS011;5946;51.770;8.548;2022-11-21T10:52:35;76.23;;;36.47;;
11777;SDS011;5946;51.770;8.548;2022-11-21T10:57:27;63.10;;;31.37;;
11777;SDS011;5946;51.770;8.548;2022-11-21T11:00:16;72.07;;;33.93;;
11777;SDS011;5946;51.770;8.548;2022-11-21T11:05:28;61.93;;;29.57;;
11777;SDS011;5946;51.770;8.548;2022-11-21T11:07:58;64.97;;;30.20;;
11777;SDS011;5946;51.770;8.548;2022-11-21T11:10:25;55.33;;;29.20;;
11777;SDS011;5946;51.770;8.548;2022-11-21T11:12:51;44.50;;;24.67;;
11777;SDS011;5946;51.770;8.548;2022-11-21T11:15:36;46.03;;;25.20;;
11777;SDS011;5946;51.770;8.548;2022-11-21T11:18:03;41.90;;;24.63;;
11777;SDS011;5946;51.770;8.548;2022-11-21T11:20:39;40.37;;;23.63;;
11777;SDS011;5946;51.770;8.548;2022-11-21T11:25:48;34.93;;;21.27;;
11777;SDS011;5946;51.770;8.548;2022-11-21T11:28:14;32.93;;;19.93;;
11777;SDS011;5946;51.770;8.548;2022-11-21T11:30:43;31.10;;;20.30;;
11777;SDS011;5946;51.770;8.548;2022-11-21T11:35:55;30.87;;;18.60;;
11777;SDS011;5946;51.770;8.548;2022-11-21T11:38:23;26.80;;;18.73;;
11777;SDS011;5946;51.770;8.548;2022-11-21T11:40:51;28.07;;;18.87;;
11777;SDS011;5946;51.770;8.548;2022-11-21T11:49:14;26.73;;;18.33;;
11777;SDS011;5946;51.770;8.548;2022-11-21T11:51:46;29.87;;;17.70;;
11777;SDS011;5946;51.770;8.548;2022-11-21T11:54:33;23.43;;;16.57;;
11777;SDS011;5946;51.770;8.548;2022-11-21T11:57:00;25.73;;;17.10;;
11777;SDS011;5946;51.770;8.548;2022-11-21T11:59:30;26.70;;;17.40;;
11777;SDS011;5946;51.770;8.548;2022-11-21T12:02:00;26.40;;;17.80;;
11777;SDS011;5946;51.770;8.548;2022-11-21T12:04:28;23.77;;;16.73;;
11777;SDS011;5946;51.770;8.548;2022-11-21T12:07:02;22.33;;;16.30;;
11777;SDS011;5946;51.770;8.548;2022-11-21T12:15:02;22.63;;;16.47;;
11777;SDS011;5946;51.770;8.548;2022-11-21T12:20:23;22.10;;;15.83;;
11777;SDS011;5946;51.770;8.548;2022-11-21T12:22:50;25.23;;;16.47;;
11777;SDS011;5946;51.770;8.548;2022-11-21T12:25:18;24.83;;;16.80;;
11777;SDS011;5946;51.770;8.548;2022-11-21T12:27:46;26.80;;;17.77;;
11777;SDS011;5946;51.770;8.548;2022-11-21T12:30:23;22.90;;;16.50;;
11777;SDS011;5946;51.770;8.548;2022-11-21T12:32:54;24.70;;;16.67;;
11777;SDS011;5946;51.770;8.548;2022-11-21T12:37:51;24.77;;;17.50;;
11777;SDS011;5946;51.770;8.548;2022-11-21T12:40:26;24.23;;;16.30;;
11777;SDS011;5946;51.770;8.548;2022-11-21T12:45:40;23.87;;;17.73;;
11777;SDS011;5946;51.770;8.548;2022-11-21T12:51:19;27.90;;;20.10;;
11777;SDS011;5946;51.770;8.548;2022-11-21T12:57:04;28.17;;;20.57;;
11777;SDS011;5946;51.770;8.548;2022-11-21T12:59:30;25.37;;;18.90;;
11777;SDS011;5946;51.770;8.548;2022-11-21T13:04:32;29.80;;;21.37;;
11777;SDS011;5946;51.770;8.548;2022-11-21T13:06:59;30.47;;;22.60;;
11777;SDS011;5946;51.770;8.548;2022-11-21T13:09:26;32.77;;;22.10;;
11777;SDS011;5946;51.770;8.548;2022-11-21T13:12:01;31.70;;;22.47;;
11777;SDS011;5946;51.770;8.548;2022-11-21T13:25:17;32.30;;;21.43;;
11777;SDS011;5946;51.770;8.548;2022-11-21T13:28:21;28.57;;;20.43;;
11777;SDS011;5946;51.770;8.548;2022-11-21T13:30:48;30.37;;;21.63;;
11777;SDS011;5946;51.770;8.548;2022-11-21T13:36:00;31.07;;;21.17;;
11777;SDS011;5946;51.770;8.548;2022-11-21T13:38:26;32.10;;;21.80;;
11777;SDS011;5946;51.770;8.548;2022-11-21T13:40:52;33.47;;;21.87;;
11777;SDS011;5946;51.770;8.548;2022-11-21T13:43:37;33.70;;;22.70;;
11777;SDS011;5946;51.770;8.548;2022-11-21T13:46:03;32.63;;;21.00;;
11777;SDS011;5946;51.770;8.548;2022-11-21T13:55:54;31.43;;;21.77;;
11777;SDS011;5946;51.770;8.548;2022-11-21T14:01:28;35.33;;;23.27;;
11777;SDS011;5946;51.770;8.548;2022-11-21T14:03:59;33.57;;;22.30;;
11777;SDS011;5946;51.770;8.548;2022-11-21T14:06:31;33.27;;;22.80;;
11777;SDS011;5946;51.770;8.548;2022-11-21T14:11:54;31.57;;;21.80;;
11777;SDS011;5946;51.770;8.548;2022-11-21T14:19:41;33.03;;;21.23;;
11777;SDS011;5946;51.770;8.548;2022-11-21T14:22:23;31.90;;;21.37;;
11777;SDS011;5946;51.770;8.548;2022-11-21T14:24:51;32.07;;;21.30;;
11777;SDS011;5946;51.770;8.548;2022-11-21T14:27:21;31.57;;;20.67;;
11777;SDS011;5946;51.770;8.548;2022-11-21T14:29:48;36.43;;;21.60;;
11777;SDS011;5946;51.770;8.548;2022-11-21T14:32:14;36.00;;;22.30;;
11777;SDS011;5946;51.770;8.548;2022-11-21T14:34:41;39.60;;;24.03;;
11777;SDS011;5946;51.770;8.548;2022-11-21T14:37:07;38.40;;;22.30;;
11777;SDS011;5946;51.770;8.548;2022-11-21T14:39:33;43.10;;;24.77;;
11777;SDS011;5946;51.770;8.548;2022-11-21T14:42:00;47.60;;;27.87;;
11777;SDS011;5946;51.770;8.548;2022-11-21T14:44:27;37.80;;;24.13;;
11777;SDS011;5946;51.770;8.548;2022-11-21T14:49:38;41.83;;;26.53;;
11777;SDS011;5946;51.770;8.548;2022-11-21T14:54:45;33.83;;;21.10;;
11777;SDS011;5946;51.770;8.548;2022-11-21T14:57:24;32.67;;;21.17;;
11777;SDS011;5946;51.770;8.548;2022-11-21T14:59:51;32.67;;;21.57;;
11777;SDS011;5946;51.770;8.548;2022-11-21T15:02:21;34.93;;;21.47;;
11777;SDS011;5946;51.770;8.548;2022-11-21T15:04:48;37.30;;;22.73;;
11777;SDS011;5946;51.770;8.548;2022-11-21T15:07:19;34.73;;;21.67;;
11777;SDS011;5946;51.770;8.548;2022-11-21T15:09:45;34.57;;;21.93;;
11777;SDS011;5946;51.770;8.548;2022-11-21T15:12:11;36.53;;;22.23;;
11777;SDS011;5946;51.770;8.548;2022-11-21T15:14:43;37.97;;;22.63;;
11777;SDS011;5946;51.770;8.548;2022-11-21T15:17:12;35.53;;;21.63;;
11777;SDS011;5946;51.770;8.548;2022-11-21T15:19:39;35.40;;;21.23;;
11777;SDS011;5946;51.770;8.548;2022-11-21T15:22:08;35.43;;;22.17;;
11777;SDS011;5946;51.770;8.548;2022-11-21T15:24:45;32.40;;;19.97;;
11777;SDS011;5946;51.770;8.548;2022-11-21T15:32:33;36.70;;;21.17;;
11777;SDS011;5946;51.770;8.548;2022-11-21T15:38:00;33.23;;;20.47;;
11777;SDS011;5946;51.770;8.548;2022-11-21T15:40:26;33.70;;;20.37;;
11777;SDS011;5946;51.770;8.548;2022-11-21T15:42:52;34.70;;;21.03;;
11777;SDS011;5946;51.770;8.548;2022-11-21T15:45:23;37.43;;;21.23;;
11777;SDS011;5946;51.770;8.548;2022-11-21T15:47:50;30.53;;;20.37;;
11777;SDS011;5946;51.770;8.548;2022-11-21T15:50:17;32.20;;;19.97;;
11777;SDS011;5946;51.770;8.548;2022-11-21T15:52:43;34.77;;;21.13;;
11777;SDS011;5946;51.770;8.548;2022-11-21T15:55:11;36.13;;;21.73;;
11777;SDS011;5946;51.770;8.548;2022-11-21T15:57:38;34.70;;;21.30;;
11777;SDS011;5946;51.770;8.548;2022-11-21T16:00:04;37.57;;;21.57;;
11777;SDS011;5946;51.770;8.548;2022-11-21T16:02:32;35.70;;;21.33;;
11777;SDS011;5946;51.770;8.548;2022-11-21T16:04:58;34.73;;;20.70;;
11777;SDS011;5946;51.770;8.548;2022-11-21T16:07:24;33.87;;;21.17;;
11777;SDS011;5946;51.770;8.548;2022-11-21T16:09:50;32.03;;;20.27;;
11777;SDS011;5946;51.770;8.548;2022-11-21T16:12:16;33.00;;;20.47;;
11777;SDS011;5946;51.770;8.548;2022-11-21T16:14:42;31.40;;;20.03;;
11777;SDS011;5946;51.770;8.548;2022-11-21T16:17:08;34.37;;;19.90;;
11777;SDS011;5946;51.770;8.548;2022-11-21T16:19:34;34.23;;;21.43;;
11777;SDS011;5946;51.770;8.548;2022-11-21T16:22:00;33.27;;;20.20;;
11777;SDS011;5946;51.770;8.548;2022-11-21T16:24:26;30.07;;;19.10;;
11777;SDS011;5946;51.770;8.548;2022-11-21T16:26:51;29.33;;;19.23;;
11777;SDS011;5946;51.770;8.548;2022-11-21T16:29:19;34.10;;;20.20;;